Messwerte George

Temperatur

Temperatur
°C
1516424400 7.00 7.00 20
1516428000 8.00 8.00 20
1516431600 9.00 9.00 20
1516435200 10.00 10.00 21
1516438800 11.00 11.00 21
1516442400 12.00 12.00 21
1516446000 13.00 13.00 21
1516449600 14.00 14.00 23
1516453200 15.00 15.00
1516456800 16.00 16.00 22
1516460400 17.00 17.00 21
1516464000 18.00 18.00 21
1516467600 19.00 19.00 21
1516471200 20.00 20.00 21
1516474800 21.00 21.00 21
1516478400 22.00 22.00
1516482000 23.00 23.00 21
1516485600 0.00 0.00 21
1516489200 1.00 1.00 21
1516492800 2.00 2.00 21
1516496400 3.00 3.00 20
1516500000 4.00 4.00 20
1516503600 5.00 5.00 20
1516507200 6.00 6.00 20

Aktuellste Messwerte

Wettercharakter
Wetter: bedeckt
Temperatur
20 °C
Feuchtigkeit
100 %
Wind
20 km/hWindrichtung: Ost
Luftdruck
1009 hPa
Messzeit: 21. Januar 2018, 6.00Datenquelle: METAR

Weitere Messstationen in der Nähe

Messstation Temperatur Entfernung
Port Elizabeth 22 °C 298 km
Kapstadt 16 °C 348 km
Langebaanweg 17 °C 407 km

Wind

Windrichtung Böen Mittelwind
° km/h km/h
1516424400 7.00 6.00 - 7.00 130° 25
1516428000 8.00 7.00 - 8.00 130° 20
1516431600 9.00 8.00 - 9.00 130° 25
1516435200 10.00 9.00 - 10.00 120° 20
1516438800 11.00 10.00 - 11.00 130° 20
1516442400 12.00 11.00 - 12.00 130° 15
1516446000 13.00 12.00 - 13.00 130° 20
1516449600 14.00 13.00 - 14.00 130° 15
1516453200 15.00 14.00 - 15.00
1516456800 16.00 15.00 - 16.00 120° 20
1516460400 17.00 16.00 - 17.00 110° 25
1516464000 18.00 17.00 - 18.00 110° 55 35
1516467600 19.00 18.00 - 19.00 110° 55 35
1516471200 20.00 19.00 - 20.00 110° 65 40
1516474800 21.00 20.00 - 21.00 110° 35
1516478400 22.00 21.00 - 22.00
1516482000 23.00 22.00 - 23.00 110° 30
1516485600 0.00 23.00 - 0.00 100° 30
1516489200 1.00 0.00 - 1.00 110° 30
1516492800 2.00 1.00 - 2.00 120° 25
1516496400 3.00 2.00 - 3.00 100° 25
1516500000 4.00 3.00 - 4.00 100° 20
1516503600 5.00 4.00 - 5.00 100° 15
1516507200 6.00 5.00 - 6.00 90° 20

Ihre Wetterstation

Fehlt Ihre Wetterstation auf unserem Portal?

Schreiben Sie an network@meteonews.ch

Klima

Wann ist es am wärmsten? Wann regnet es am wenigsten? Unsere Klimadaten geben Auskunft.